Huff, Kentucky
Current Conditions -  °F | °C
As of 9:53 AM on Wednesday 28 Jan 2015 (Local Time) from KBWG Reporting Station
Clear Clear  
Wind Chill: -3°   Ceiling: Unl
Heat Index:   Visibility: 10mi
Dew Point: -8°   Wind: 9mph
Humidity: 52%   Direction: 100°E
Pressure: 30.37"   Gusts: NA
Location:  37.2379°N, 86.3446°W
Report Text: KBWG 281553Z AUTO 10008KT 10SM CLR 01/M08 A3037 RMK AO2 SLP287 T00111078
Loading
Personal Weather Stations






























Interactive Weather Map New forecast layout! Learn more

10-Day Weather Forecast

Advertisements
Track Severe Weather on mobile